createdAt,value
2023-01-08T00:01:12.991Z,2.92
2023-01-08T00:03:40.126Z,2.90
2023-01-08T00:06:09.733Z,1.73
2023-01-08T00:08:36.726Z,3.13
2023-01-08T00:11:03.751Z,2.08
2023-01-08T00:13:30.663Z,2.00
2023-01-08T00:15:57.800Z,2.45
2023-01-08T00:18:27.149Z,1.98
2023-01-08T00:20:54.077Z,1.83
2023-01-08T00:23:21.030Z,1.80
2023-01-08T00:25:47.997Z,2.38
2023-01-08T00:28:17.669Z,2.63
2023-01-08T00:30:44.728Z,1.90
2023-01-08T00:33:11.684Z,2.67
2023-01-08T00:35:39.106Z,2.70
2023-01-08T00:38:06.342Z,2.42
2023-01-08T00:40:34.487Z,2.03
2023-01-08T00:43:01.528Z,2.10
2023-01-08T00:45:28.406Z,1.95
2023-01-08T00:47:55.268Z,2.78
2023-01-08T00:50:22.176Z,2.15
2023-01-08T00:52:49.084Z,1.92
2023-01-08T00:55:16.158Z,2.60
2023-01-08T00:57:43.045Z,1.98
2023-01-08T01:00:12.401Z,1.90
2023-01-08T01:02:39.605Z,2.05
2023-01-08T01:05:06.799Z,2.17
2023-01-08T01:07:36.969Z,1.73
2023-01-08T01:10:04.107Z,2.80
2023-01-08T01:12:31.077Z,2.30
2023-01-08T01:14:58.011Z,2.47
2023-01-08T01:17:25.032Z,2.20
2023-01-08T01:19:51.934Z,1.80
2023-01-08T01:22:18.826Z,2.40
2023-01-08T01:24:45.740Z,1.83
2023-01-08T01:27:12.679Z,2.22
2023-01-08T01:29:39.594Z,2.08
2023-01-08T01:32:06.692Z,2.55
2023-01-08T01:34:33.737Z,2.72
2023-01-08T01:37:00.731Z,3.25
2023-01-08T01:39:27.784Z,2.40
2023-01-08T01:41:54.703Z,2.97
2023-01-08T01:44:39.922Z,3.05
2023-01-08T01:47:32.621Z,3.03
2023-01-08T01:50:08.126Z,2.45
2023-01-08T01:52:46.750Z,3.10
2023-01-08T01:55:13.930Z,2.25
2023-01-08T01:57:41.483Z,1.92
2023-01-08T02:00:09.281Z,2.13
2023-01-08T02:02:39.241Z,2.05
2023-01-08T02:05:06.643Z,1.70
2023-01-08T02:07:54.319Z,3.33
2023-01-08T02:10:28.620Z,1.90
2023-01-08T02:13:01.972Z,2.35
2023-01-08T02:15:34.319Z,2.13
2023-01-08T02:18:35.051Z,3.42
2023-01-08T02:21:10.482Z,2.63
2023-01-08T02:23:49.797Z,2.50
2023-01-08T02:26:28.003Z,2.75
2023-01-08T02:28:56.117Z,2.33
2023-01-08T02:31:23.290Z,2.60
2023-01-08T02:33:50.212Z,2.20
2023-01-08T02:36:32.775Z,2.50
2023-01-08T02:39:21.611Z,2.40
2023-01-08T02:41:57.524Z,2.83
2023-01-08T02:44:37.529Z,2.17
2023-01-08T02:47:06.204Z,1.92
2023-01-08T02:49:33.406Z,2.13
2023-01-08T02:52:00.469Z,2.20
2023-01-08T02:54:29.424Z,1.50
2023-01-08T02:57:04.876Z,2.38
2023-01-08T02:59:32.335Z,2.50
2023-01-08T03:01:59.600Z,2.13
2023-01-08T03:04:26.665Z,1.95
2023-01-08T03:06:53.557Z,2.50
2023-01-08T03:09:21.092Z,1.63
2023-01-08T03:11:55.978Z,1.80
2023-01-08T03:14:27.379Z,2.15
2023-01-08T03:17:03.487Z,1.65
2023-01-08T03:19:39.634Z,1.85
2023-01-08T03:22:08.322Z,1.58
2023-01-08T03:24:35.310Z,1.90
2023-01-08T03:27:03.961Z,1.20
2023-01-08T03:29:30.994Z,1.48
2023-01-08T03:32:01.397Z,1.52
2023-01-08T03:34:28.579Z,1.83
2023-01-08T03:36:57.848Z,1.63
2023-01-08T03:39:42.173Z,1.47
2023-01-08T03:42:10.472Z,1.55
2023-01-08T03:44:37.425Z,1.75
2023-01-08T03:47:04.430Z,1.90
2023-01-08T03:49:31.322Z,2.22
2023-01-08T03:51:58.209Z,1.63
2023-01-08T03:54:33.100Z,1.80
2023-01-08T03:57:00.095Z,3.65
2023-01-08T03:59:26.971Z,1.70
2023-01-08T04:01:53.994Z,2.45
2023-01-08T04:04:21.085Z,2.25
2023-01-08T04:06:47.987Z,2.72
2023-01-08T04:09:14.811Z,3.15
2023-01-08T04:11:41.695Z,2.08
2023-01-08T04:14:08.672Z,2.67
2023-01-08T04:16:35.579Z,1.83
2023-01-08T04:19:02.477Z,2.38
2023-01-08T04:21:29.416Z,1.85
2023-01-08T04:23:56.779Z,2.30
2023-01-08T04:26:23.680Z,1.80
2023-01-08T04:28:50.560Z,2.03
2023-01-08T04:31:17.512Z,1.70
2023-01-08T04:33:44.456Z,1.65
2023-01-08T04:36:11.377Z,1.55
2023-01-08T04:38:38.241Z,1.95
2023-01-08T04:41:05.857Z,1.50
2023-01-08T04:43:32.999Z,1.30
2023-01-08T04:46:00.718Z,1.45
2023-01-08T04:48:28.180Z,2.65
2023-01-08T04:50:55.178Z,1.90
2023-01-08T04:53:22.044Z,2.40
2023-01-08T04:55:48.931Z,1.35
2023-01-08T04:58:15.780Z,1.00
2023-01-08T05:00:42.695Z,0.93
2023-01-08T05:03:09.649Z,0.82
2023-01-08T05:05:36.583Z,0.73
2023-01-08T05:08:03.583Z,0.60
2023-01-08T05:10:30.539Z,0.60
2023-01-08T05:13:00.972Z,0.50
2023-01-08T05:15:28.102Z,0.50
2023-01-08T05:18:01.979Z,0.60
2023-01-08T05:20:29.001Z,1.05
2023-01-08T05:22:56.469Z,0.80
2023-01-08T05:25:23.415Z,1.10
2023-01-08T05:27:50.439Z,1.25
2023-01-08T05:30:17.438Z,0.95
2023-01-08T05:32:44.271Z,0.98
2023-01-08T05:35:11.227Z,1.02
2023-01-08T05:37:38.288Z,0.88
2023-01-08T05:40:05.934Z,0.90
2023-01-08T05:42:34.729Z,1.00
2023-01-08T05:45:03.009Z,1.10
2023-01-08T05:47:30.934Z,1.23
2023-01-08T05:49:57.875Z,1.38
2023-01-08T05:52:24.905Z,1.10
2023-01-08T05:54:51.787Z,1.10
2023-01-08T05:57:18.706Z,1.10
2023-01-08T05:59:45.614Z,0.98
2023-01-08T06:02:12.618Z,0.90
2023-01-08T06:04:39.942Z,1.17
2023-01-08T06:07:06.880Z,1.40
2023-01-08T06:09:33.861Z,1.20
2023-01-08T06:12:00.852Z,1.38
2023-01-08T06:14:27.850Z,0.90
2023-01-08T06:16:54.839Z,1.10
2023-01-08T06:19:21.836Z,0.82
2023-01-08T06:21:48.685Z,1.23
2023-01-08T06:24:15.597Z,0.98
2023-01-08T06:26:42.496Z,0.80
2023-01-08T06:29:09.472Z,0.77
2023-01-08T06:31:36.476Z,0.70
2023-01-08T06:34:03.480Z,0.77
2023-01-08T06:36:30.472Z,0.70
2023-01-08T06:38:57.398Z,0.60
2023-01-08T06:41:24.355Z,0.70
2023-01-08T06:43:51.217Z,1.05
2023-01-08T06:46:18.166Z,1.08
2023-01-08T06:48:45.286Z,0.95
2023-01-08T06:51:12.197Z,1.05
2023-01-08T06:53:39.067Z,1.25
2023-01-08T06:56:09.406Z,1.10
2023-01-08T06:58:37.145Z,1.02
2023-01-08T07:01:04.252Z,0.90
2023-01-08T07:03:31.322Z,1.10
2023-01-08T07:05:58.314Z,1.25
2023-01-08T07:08:25.214Z,1.27
2023-01-08T07:10:52.089Z,2.22
2023-01-08T07:13:19.009Z,1.17
2023-01-08T07:15:45.904Z,1.40
2023-01-08T07:18:13.635Z,1.58
2023-01-08T07:20:40.572Z,1.00
2023-01-08T07:23:09.760Z,1.02
2023-01-08T07:25:36.667Z,1.43
2023-01-08T07:28:03.605Z,1.35
2023-01-08T07:30:30.932Z,1.00
2023-01-08T07:33:01.862Z,1.25
2023-01-08T07:35:29.285Z,1.55
2023-01-08T07:37:56.333Z,0.90
2023-01-08T07:40:23.315Z,2.20
2023-01-08T07:43:01.008Z,1.75
2023-01-08T07:45:28.721Z,1.15
2023-01-08T07:47:58.105Z,1.20
2023-01-08T07:50:25.165Z,1.02
2023-01-08T07:52:52.037Z,0.90
2023-01-08T07:55:18.917Z,0.95
2023-01-08T07:57:45.868Z,0.90
2023-01-08T08:00:14.806Z,1.35
2023-01-08T08:02:41.779Z,1.30
2023-01-08T08:05:09.067Z,1.10
2023-01-08T08:07:36.450Z,1.42
2023-01-08T08:10:04.487Z,1.20
2023-01-08T08:12:31.594Z,1.00
2023-01-08T08:14:58.431Z,1.30
2023-01-08T08:17:26.962Z,1.10
2023-01-08T08:19:54.061Z,1.00
2023-01-08T08:22:21.066Z,1.00
2023-01-08T08:24:47.926Z,1.08
2023-01-08T08:27:14.942Z,0.90
2023-01-08T08:29:41.952Z,1.02
2023-01-08T08:32:10.116Z,1.60
2023-01-08T08:34:37.061Z,1.55
2023-01-08T08:37:03.950Z,1.00
2023-01-08T08:39:30.833Z,1.25
2023-01-08T08:41:57.748Z,1.30
2023-01-08T08:44:24.641Z,0.80
2023-01-08T08:46:51.587Z,1.98
2023-01-08T08:49:18.525Z,1.15
2023-01-08T08:51:45.441Z,1.00
2023-01-08T08:54:12.417Z,1.08
2023-01-08T08:56:39.343Z,1.08
2023-01-08T08:59:06.290Z,1.65
2023-01-08T09:01:33.341Z,1.20
2023-01-08T09:04:00.259Z,0.95
2023-01-08T09:06:27.878Z,1.33
2023-01-08T09:08:55.270Z,1.38
2023-01-08T09:11:22.277Z,2.13
2023-01-08T09:13:49.296Z,1.40
2023-01-08T09:16:16.311Z,1.50
2023-01-08T09:18:43.317Z,1.55
2023-01-08T09:21:10.200Z,1.45
2023-01-08T09:23:37.249Z,1.70
2023-01-08T09:26:04.787Z,0.90
2023-01-08T09:28:31.801Z,1.25
2023-01-08T09:31:02.915Z,1.20
2023-01-08T09:33:30.241Z,1.33
2023-01-08T09:35:57.123Z,1.77
2023-01-08T09:38:24.186Z,1.70
2023-01-08T09:41:00.476Z,1.50
2023-01-08T09:43:28.735Z,1.55
2023-01-08T09:45:56.667Z,1.45
2023-01-08T09:48:29.200Z,1.80
2023-01-08T09:50:56.898Z,1.40
2023-01-08T09:53:23.881Z,1.48
2023-01-08T09:56:11.339Z,1.25
2023-01-08T09:58:46.676Z,1.90
2023-01-08T10:01:14.806Z,1.95
2023-01-08T10:03:50.019Z,1.95
2023-01-08T10:06:17.194Z,1.70
2023-01-08T10:11:38.698Z,1.65
2023-01-08T10:14:05.584Z,2.25
2023-01-08T10:16:35.786Z,3.05
2023-01-08T10:19:03.781Z,1.90
2023-01-08T10:21:38.165Z,1.55
2023-01-08T10:24:05.312Z,2.00
2023-01-08T10:26:33.715Z,2.08
2023-01-08T10:29:16.013Z,2.05
2023-01-08T10:31:54.254Z,1.58
2023-01-08T10:34:47.155Z,2.78
2023-01-08T10:37:28.214Z,2.10
2023-01-08T10:39:56.673Z,1.65
2023-01-08T10:42:23.539Z,1.80
2023-01-08T10:45:02.266Z,2.67
2023-01-08T10:47:31.013Z,2.17
2023-01-08T10:49:58.216Z,1.92
2023-01-08T10:52:32.765Z,2.38
2023-01-08T10:55:26.499Z,1.70
2023-01-08T10:57:55.142Z,1.17
2023-01-08T11:00:23.968Z,1.35
2023-01-08T11:02:51.009Z,2.40
2023-01-08T11:05:17.904Z,1.98
2023-01-08T11:07:49.097Z,1.90
2023-01-08T11:10:26.195Z,1.95
2023-01-08T11:12:58.000Z,2.13
2023-01-08T11:15:41.124Z,2.22
2023-01-08T11:18:13.110Z,2.50
2023-01-08T11:20:42.164Z,2.40
2023-01-08T11:23:16.260Z,2.50
2023-01-08T11:25:45.073Z,1.23
2023-01-08T11:28:15.012Z,1.42
2023-01-08T11:30:41.971Z,1.90
2023-01-08T11:33:15.122Z,1.95
2023-01-08T11:35:54.776Z,1.58
2023-01-08T11:38:21.711Z,1.33
2023-01-08T11:41:09.284Z,1.58
2023-01-08T11:44:09.691Z,1.52
2023-01-08T11:46:56.168Z,1.50
2023-01-08T11:49:33.818Z,1.80
2023-01-08T11:52:34.491Z,2.58
2023-01-08T11:55:23.503Z,1.33
2023-01-08T11:58:12.328Z,1.40
2023-01-08T12:00:54.152Z,2.00
2023-01-08T12:03:37.028Z,1.80
2023-01-08T12:06:48.467Z,1.25
2023-01-08T12:09:28.486Z,1.90
2023-01-08T12:12:02.984Z,1.73
2023-01-08T12:14:36.225Z,1.92
2023-01-08T12:17:13.170Z,2.42
2023-01-08T12:20:07.349Z,2.00
2023-01-08T12:22:57.438Z,2.38
2023-01-08T12:26:10.184Z,1.60
2023-01-08T12:28:41.571Z,2.67
2023-01-08T12:31:08.529Z,2.13
2023-01-08T12:33:50.068Z,1.63
2023-01-08T12:36:21.930Z,1.80
2023-01-08T12:38:55.123Z,2.65
2023-01-08T12:41:22.082Z,1.52
2023-01-08T12:43:52.121Z,2.53
2023-01-08T12:48:47.158Z,2.22
2023-01-08T12:51:22.576Z,1.30
2023-01-08T12:54:21.356Z,1.85
2023-01-08T12:57:07.444Z,1.83
2023-01-08T12:59:53.116Z,1.55
2023-01-08T13:02:49.518Z,1.63
2023-01-08T13:05:19.693Z,1.80
2023-01-08T13:10:32.670Z,1.95
2023-01-08T13:13:01.879Z,2.08
2023-01-08T13:15:30.796Z,1.47
2023-01-08T13:17:59.733Z,2.20
2023-01-08T13:20:28.509Z,1.85
2023-01-08T13:22:59.723Z,2.42
2023-01-08T13:25:32.902Z,1.50
2023-01-08T13:28:00.102Z,2.58
2023-01-08T13:30:38.389Z,2.33
2023-01-08T13:33:30.343Z,1.63
2023-01-08T13:36:21.268Z,1.83
2023-01-08T13:38:59.836Z,1.70
2023-01-08T13:41:37.437Z,1.95
2023-01-08T13:44:14.137Z,2.25
2023-01-08T13:46:41.248Z,1.98
2023-01-08T13:49:09.844Z,1.85
2023-01-08T13:51:44.986Z,1.75
2023-01-08T13:54:15.091Z,1.80
2023-01-08T13:59:32.526Z,1.67
2023-01-08T14:02:01.488Z,1.65
2023-01-08T14:04:28.624Z,1.95
2023-01-08T14:07:14.416Z,1.50
2023-01-08T14:09:41.453Z,1.45
2023-01-08T14:12:11.461Z,1.30
2023-01-08T14:17:05.646Z,1.42
2023-01-08T14:19:32.571Z,1.20
2023-01-08T14:22:01.660Z,0.73
2023-01-08T14:24:28.662Z,1.00
2023-01-08T14:26:57.239Z,1.33
2023-01-08T14:29:26.139Z,0.75
2023-01-08T14:31:56.985Z,1.08
2023-01-08T14:34:25.622Z,0.70
2023-01-08T14:36:53.351Z,1.00
2023-01-08T14:39:40.632Z,1.38
2023-01-08T14:42:31.954Z,1.05
2023-01-08T14:45:04.375Z,0.80
2023-01-08T14:47:35.040Z,1.88
2023-01-08T14:50:01.909Z,0.90
2023-01-08T14:52:28.809Z,0.80
2023-01-08T14:54:56.980Z,0.90
2023-01-08T14:57:24.409Z,0.90
2023-01-08T14:59:55.254Z,1.00
2023-01-08T15:02:31.776Z,1.17
2023-01-08T15:05:14.910Z,0.90
2023-01-08T15:07:44.203Z,1.00
2023-01-08T15:10:43.699Z,1.13
2023-01-08T15:13:23.919Z,0.80
2023-01-08T15:16:07.803Z,0.70
2023-01-08T15:18:43.146Z,0.60
2023-01-08T15:21:10.321Z,0.77
2023-01-08T15:23:41.998Z,0.93
2023-01-08T15:26:12.782Z,1.15
2023-01-08T15:28:57.485Z,1.75
2023-01-08T15:31:45.722Z,1.10
2023-01-08T15:34:12.764Z,0.93
2023-01-08T15:36:39.682Z,0.70
2023-01-08T15:39:06.673Z,0.70
2023-01-08T15:41:55.611Z,0.85
2023-01-08T15:44:22.716Z,0.80
2023-01-08T15:46:49.621Z,0.95
2023-01-08T15:49:16.492Z,0.70
2023-01-08T15:51:52.534Z,0.70
2023-01-08T15:54:21.393Z,0.63
2023-01-08T15:56:48.299Z,0.85
2023-01-08T15:59:15.232Z,0.90
2023-01-08T16:01:42.279Z,0.80
2023-01-08T16:04:09.336Z,0.73
2023-01-08T16:06:36.417Z,0.80
2023-01-08T16:09:03.478Z,0.70
2023-01-08T16:11:30.350Z,0.90
2023-01-08T16:13:57.396Z,0.80
2023-01-08T16:16:24.356Z,0.80
2023-01-08T16:18:52.562Z,0.70
2023-01-08T16:21:19.470Z,0.93
2023-01-08T16:23:46.396Z,0.80
2023-01-08T16:26:14.382Z,0.85
2023-01-08T16:28:41.325Z,0.82
2023-01-08T16:31:08.431Z,0.90
2023-01-08T16:33:35.426Z,0.88
2023-01-08T16:36:04.157Z,0.98
2023-01-08T16:40:56.842Z,1.10
2023-01-08T16:43:24.656Z,1.15
2023-01-08T16:45:51.594Z,1.00
2023-01-08T16:48:18.793Z,1.27
2023-01-08T16:50:45.808Z,1.00
2023-01-08T16:53:12.938Z,0.90
2023-01-08T16:55:40.633Z,1.42
2023-01-08T16:58:08.006Z,1.35
2023-01-08T17:00:35.924Z,1.90
2023-01-08T17:03:03.721Z,1.25
2023-01-08T17:05:30.628Z,1.10
2023-01-08T17:07:57.607Z,1.27
2023-01-08T17:10:25.271Z,0.93
2023-01-08T17:12:52.212Z,1.05
2023-01-08T17:15:19.389Z,1.30
2023-01-08T17:17:46.246Z,0.95
2023-01-08T17:20:13.376Z,1.15
2023-01-08T17:22:40.240Z,1.33
2023-01-08T17:25:07.507Z,1.15
2023-01-08T17:27:37.698Z,1.55
2023-01-08T17:32:32.185Z,0.80
2023-01-08T17:34:59.144Z,1.25
2023-01-08T17:37:26.140Z,1.10
2023-01-08T17:39:53.035Z,1.23
2023-01-08T17:42:26.898Z,0.82
2023-01-08T17:44:55.459Z,1.88
2023-01-08T17:47:22.397Z,1.00
2023-01-08T17:49:50.373Z,0.73
2023-01-08T17:52:24.880Z,1.52
2023-01-08T17:54:52.158Z,0.75
2023-01-08T17:57:19.613Z,1.05
2023-01-08T17:59:46.823Z,1.00
2023-01-08T18:02:16.137Z,0.85
2023-01-08T18:04:43.968Z,1.00
2023-01-08T18:07:10.996Z,0.88
2023-01-08T18:09:37.901Z,0.90
2023-01-08T18:12:05.101Z,1.20
2023-01-08T18:14:32.235Z,1.02
2023-01-08T18:16:59.154Z,0.85
2023-01-08T18:19:26.402Z,0.93
2023-01-08T18:21:55.200Z,1.48
2023-01-08T18:24:22.221Z,0.80
2023-01-08T18:26:49.767Z,0.73
2023-01-08T18:29:16.620Z,0.73
2023-01-08T18:31:46.052Z,1.00
2023-01-08T18:34:15.212Z,1.15
2023-01-08T18:36:42.276Z,0.95
2023-01-08T18:39:09.265Z,1.20
2023-01-08T18:41:54.624Z,1.23
2023-01-08T18:44:21.581Z,1.10
2023-01-08T18:46:48.529Z,0.90
2023-01-08T18:49:15.660Z,1.20
2023-01-08T18:51:42.930Z,1.35
2023-01-08T18:54:11.287Z,1.10
2023-01-08T18:56:38.556Z,1.23
2023-01-08T18:59:05.901Z,1.38
2023-01-08T19:01:34.104Z,1.23
2023-01-08T19:04:01.285Z,1.58
2023-01-08T19:06:28.291Z,1.90
2023-01-08T19:08:57.835Z,1.25
2023-01-08T19:11:24.895Z,1.67
2023-01-08T19:13:55.699Z,1.80
2023-01-08T19:16:22.839Z,1.63
2023-01-08T19:18:50.324Z,1.50
2023-01-08T19:21:19.215Z,1.45
2023-01-08T19:23:47.089Z,1.60
2023-01-08T19:26:14.660Z,1.20
2023-01-08T19:28:42.290Z,1.30
2023-01-08T19:31:12.176Z,1.10
2023-01-08T19:33:40.026Z,1.52
2023-01-08T19:36:15.964Z,1.27
2023-01-08T19:38:43.758Z,1.30
2023-01-08T19:41:30.959Z,1.17
2023-01-08T19:43:58.275Z,1.00
2023-01-08T19:46:25.141Z,1.30
2023-01-08T19:48:52.111Z,1.00
2023-01-08T19:51:18.997Z,1.50
2023-01-08T19:53:45.928Z,1.42
2023-01-08T19:56:13.393Z,1.15
2023-01-08T19:58:40.491Z,1.20
2023-01-08T20:01:18.454Z,1.42
2023-01-08T20:03:45.586Z,1.05
2023-01-08T20:06:19.748Z,1.10
2023-01-08T20:08:54.395Z,1.15
2023-01-08T20:11:22.487Z,1.00
2023-01-08T20:13:49.906Z,1.13
2023-01-08T20:16:17.902Z,1.17
2023-01-08T20:18:44.880Z,1.17
2023-01-08T20:21:20.964Z,1.20
2023-01-08T20:23:48.032Z,1.55
2023-01-08T20:26:16.528Z,1.08
2023-01-08T20:28:44.112Z,2.10
2023-01-08T20:31:15.468Z,1.40
2023-01-08T20:33:42.510Z,0.93
2023-01-08T20:36:14.725Z,1.25
2023-01-08T20:38:41.952Z,1.83
2023-01-08T20:41:08.836Z,1.17
2023-01-08T20:43:36.432Z,1.67
2023-01-08T20:46:03.683Z,1.60
2023-01-08T20:48:34.255Z,1.60
2023-01-08T20:51:04.488Z,2.03
2023-01-08T20:53:31.804Z,1.40
2023-01-08T20:56:02.573Z,1.50
2023-01-08T20:58:29.602Z,1.45
2023-01-08T21:01:00.763Z,1.48
2023-01-08T21:03:27.698Z,1.95
2023-01-08T21:05:54.565Z,1.65
2023-01-08T21:08:21.548Z,1.58
2023-01-08T21:10:57.502Z,1.70
2023-01-08T21:13:24.506Z,1.80
2023-01-08T21:15:51.422Z,1.23
2023-01-08T21:18:18.415Z,1.83
2023-01-08T21:20:45.330Z,1.73
2023-01-08T21:23:12.225Z,1.80
2023-01-08T21:25:39.115Z,1.80
2023-01-08T21:28:06.108Z,1.98
2023-01-08T21:30:32.963Z,1.77
2023-01-08T21:32:59.806Z,1.70
2023-01-08T21:35:26.821Z,1.75
2023-01-08T21:37:53.731Z,1.80
2023-01-08T21:40:21.394Z,2.28
2023-01-08T21:43:07.114Z,1.42
2023-01-08T21:45:34.055Z,2.03
2023-01-08T21:48:00.928Z,1.85
2023-01-08T21:50:28.072Z,2.10
2023-01-08T21:53:27.340Z,1.27
2023-01-08T21:55:54.352Z,1.63
2023-01-08T21:58:21.528Z,1.90
2023-01-08T22:00:48.569Z,1.20
2023-01-08T22:03:15.523Z,1.35
2023-01-08T22:05:42.431Z,1.80
2023-01-08T22:08:13.993Z,1.27
2023-01-08T22:10:41.066Z,1.70
2023-01-08T22:13:07.946Z,1.30
2023-01-08T22:15:34.853Z,1.35
2023-01-08T22:18:01.745Z,1.23
2023-01-08T22:20:28.608Z,1.20
2023-01-08T22:22:55.554Z,1.33
2023-01-08T22:25:22.433Z,1.58
2023-01-08T22:30:30.032Z,1.50
2023-01-08T22:32:56.955Z,1.88
2023-01-08T22:35:23.840Z,1.60
2023-01-08T22:37:50.703Z,2.03
2023-01-08T22:40:17.701Z,1.48
2023-01-08T22:42:44.572Z,1.50
2023-01-08T22:45:11.579Z,1.35
2023-01-08T22:47:38.559Z,2.28
2023-01-08T22:50:06.230Z,1.50
2023-01-08T22:52:33.151Z,1.20
2023-01-08T22:55:00.112Z,1.58
2023-01-08T22:57:27.006Z,0.93
2023-01-08T22:59:53.976Z,2.20
2023-01-08T23:02:24.533Z,1.35
2023-01-08T23:04:51.798Z,1.00
2023-01-08T23:07:19.294Z,1.10
2023-01-08T23:09:46.909Z,0.95
2023-01-08T23:12:14.495Z,1.70
2023-01-08T23:14:42.084Z,1.17
2023-01-08T23:17:09.207Z,1.13
2023-01-08T23:19:36.703Z,1.20
2023-01-08T23:22:03.680Z,1.52
2023-01-08T23:24:31.887Z,1.20
2023-01-08T23:26:58.747Z,1.25
2023-01-08T23:29:29.728Z,1.50
2023-01-08T23:32:00.274Z,1.27
2023-01-08T23:34:27.157Z,1.40
2023-01-08T23:36:54.073Z,1.42
2023-01-08T23:39:21.446Z,1.10
2023-01-08T23:41:48.311Z,1.20
2023-01-08T23:44:15.737Z,1.00
2023-01-08T23:46:42.612Z,1.02
2023-01-08T23:49:10.201Z,1.13
2023-01-08T23:51:37.271Z,0.80
2023-01-08T23:54:04.225Z,1.15
2023-01-08T23:56:31.690Z,0.98
2023-01-08T23:58:59.111Z,1.42
